Time;durP1;ratioP1;P1;durP2;ratioP2;P2;SDS_P1;SDS_P2;PMS_P1;PMS_P2;Temp;Humidity;BMP_temperature;BMP_pressure;BME280_temperature;BME280_humidity;BME280_pressure;Samples;Min_cycle;Max_cycle;Signal;HPM_P1;HPM_P2
2022/09/22 00:01:41;;;;;;;1.17;1.08;;;;;;;;;;5021050;28;20049;-61
2022/09/22 00:04:08;;;;;;;0.80;0.80;;;;;;;;;;5021766;28;20095;-61
2022/09/22 00:06:37;;;;;;;0.65;0.60;;;;;;;;;;5020786;28;20096;-61
2022/09/22 00:09:04;;;;;;;0.57;0.57;;;;;;;;;;5022784;28;20072;-61
2022/09/22 00:11:32;;;;;;;0.77;0.50;;;;;;;;;;5021412;28;20147;-61
2022/09/22 00:14:01;;;;;;;0.57;0.55;;;;;;;;;;5020104;28;20172;-61
2022/09/22 00:16:28;;;;;;;0.90;0.50;;;;;;;;;;5020964;28;20052;-61
2022/09/22 00:18:55;;;;;;;0.35;0.35;;;;;;;;;;5023561;28;20452;-61
2022/09/22 00:21:22;;;;;;;0.50;0.30;;;;;;;;;;5021217;28;20049;-61
2022/09/22 00:23:49;;;;;;;0.35;0.30;;;;;;;;;;5023684;28;20037;-61
2022/09/22 00:26:16;;;;;;;0.20;0.20;;;;;;;;;;5019701;28;20053;-61
2022/09/22 00:28:44;;;;;;;0.40;0.40;;;;;;;;;;5023653;28;20060;-61
2022/09/22 00:31:15;;;;;;;0.50;0.40;;;;;;;;;;5022094;28;20227;-61
2022/09/22 00:33:41;;;;;;;0.30;0.30;;;;;;;;;;5022021;28;20100;-61
2022/09/22 00:36:08;;;;;;;0.30;0.30;;;;;;;;;;5021879;28;20084;-61
2022/09/22 00:38:34;;;;;;;0.30;0.30;;;;;;;;;;5026625;28;20524;-61
2022/09/22 00:41:01;;;;;;;0.40;0.40;;;;;;;;;;5025610;28;20037;-60
2022/09/22 00:43:28;;;;;;;0.40;0.40;;;;;;;;;;5025989;28;20464;-60
2022/09/22 00:45:58;;;;;;;0.50;0.50;;;;;;;;;;5027237;28;20033;-60
2022/09/22 00:48:24;;;;;;;0.63;0.63;;;;;;;;;;5025176;28;20047;-61
2022/09/22 00:50:51;;;;;;;0.55;0.55;;;;;;;;;;5026919;28;20095;-61
2022/09/22 00:53:19;;;;;;;0.60;0.60;;;;;;;;;;5025505;28;20049;-61
2022/09/22 00:55:49;;;;;;;0.55;0.43;;;;;;;;;;5025505;28;20037;-60
2022/09/22 00:58:17;;;;;;;0.52;0.52;;;;;;;;;;5026379;28;20127;-61
2022/09/22 01:00:44;;;;;;;1.25;1.15;;;;;;;;;;5026297;28;20045;-60
2022/09/22 01:03:15;;;;;;;0.70;0.70;;;;;;;;;;5027030;28;20531;-60
2022/09/22 01:05:42;;;;;;;1.27;0.67;;;;;;;;;;5025657;28;20091;-60
2022/09/22 01:08:10;;;;;;;2.40;1.15;;;;;;;;;;5025362;28;20060;-60
2022/09/22 01:10:36;;;;;;;0.50;0.50;;;;;;;;;;5026609;28;20041;-60
2022/09/22 01:13:14;;;;;;;0.47;0.47;;;;;;;;;;5025575;28;20056;-60
2022/09/22 01:15:46;;;;;;;0.50;0.50;;;;;;;;;;5025595;28;20045;-61
2022/09/22 01:18:30;;;;;;;0.50;0.40;;;;;;;;;;5026190;28;20076;-60
2022/09/22 01:21:19;;;;;;;0.47;0.45;;;;;;;;;;5025233;28;20046;-61
2022/09/22 01:24:04;;;;;;;0.40;0.40;;;;;;;;;;5020851;28;20088;-61
2022/09/22 01:26:31;;;;;;;0.50;0.50;;;;;;;;;;5023475;28;20069;-61
2022/09/22 01:29:03;;;;;;;0.40;0.40;;;;;;;;;;5026531;28;20670;-61
2022/09/22 01:31:32;;;;;;;0.30;0.30;;;;;;;;;;5025267;28;20121;-61
2022/09/22 01:34:10;;;;;;;0.50;0.50;;;;;;;;;;5025745;28;20380;-61
2022/09/22 01:36:39;;;;;;;0.50;0.50;;;;;;;;;;5024075;28;20060;-61
2022/09/22 01:39:11;;;;;;;0.40;0.40;;;;;;;;;;5025199;28;20060;-61
2022/09/22 01:41:53;;;;;;;0.60;0.60;;;;;;;;;;5024811;28;20072;-60
2022/09/22 01:44:26;;;;;;;0.50;0.50;;;;;;;;;;5023356;28;20059;-61
2022/09/22 01:46:54;;;;;;;0.40;0.40;;;;;;;;;;5024291;28;20531;-61
2022/09/22 01:49:21;;;;;;;0.63;0.50;;;;;;;;;;5024139;28;20049;-61
2022/09/22 01:51:48;;;;;;;0.45;0.45;;;;;;;;;;5025855;28;20048;-60
2022/09/22 01:54:26;;;;;;;0.40;0.40;;;;;;;;;;5024417;28;20050;-60
2022/09/22 01:56:59;;;;;;;0.30;0.30;;;;;;;;;;5024625;28;20513;-61
2022/09/22 01:59:27;;;;;;;0.30;0.30;;;;;;;;;;5021804;28;20045;-60
2022/09/22 02:02:00;;;;;;;0.57;0.57;;;;;;;;;;5020974;28;20049;-61
2022/09/22 02:04:47;;;;;;;0.30;0.30;;;;;;;;;;5023918;28;20049;-61
2022/09/22 02:07:16;;;;;;;0.35;0.35;;;;;;;;;;5021676;28;20447;-61
2022/09/22 02:09:43;;;;;;;1.63;0.68;;;;;;;;;;5024247;28;20044;-60
2022/09/22 02:12:09;;;;;;;0.40;0.40;;;;;;;;;;5023093;28;20045;-61
2022/09/22 02:14:35;;;;;;;0.25;0.25;;;;;;;;;;5023356;28;20088;-60
2022/09/22 02:17:01;;;;;;;0.43;0.35;;;;;;;;;;5025588;28;20515;-61
2022/09/22 02:19:30;;;;;;;0.20;0.20;;;;;;;;;;5024527;28;20075;-61
2022/09/22 02:21:56;;;;;;;0.30;0.30;;;;;;;;;;5023539;28;20488;-61
2022/09/22 02:24:41;;;;;;;0.68;0.40;;;;;;;;;;5023723;28;20041;-61
2022/09/22 02:27:10;;;;;;;0.40;0.40;;;;;;;;;;5021839;28;20121;-61
2022/09/22 02:29:39;;;;;;;0.85;0.75;;;;;;;;;;5023014;28;20739;-61
2022/09/22 02:32:09;;;;;;;0.43;0.43;;;;;;;;;;5023915;28;20148;-60
2022/09/22 02:34:35;;;;;;;0.50;0.50;;;;;;;;;;5023518;28;20042;-61
2022/09/22 02:37:20;;;;;;;0.63;0.63;;;;;;;;;;5024576;28;20041;-61
2022/09/22 02:39:46;;;;;;;0.57;0.57;;;;;;;;;;5023887;28;20037;-60
2022/09/22 02:42:15;;;;;;;0.32;0.30;;;;;;;;;;5021404;28;20583;-60
2022/09/22 02:44:49;;;;;;;0.40;0.40;;;;;;;;;;5024614;28;20056;-61
2022/09/22 02:47:33;;;;;;;0.45;0.45;;;;;;;;;;5022696;28;20049;-61
2022/09/22 02:50:00;;;;;;;0.47;0.47;;;;;;;;;;5022212;28;20041;-61
2022/09/22 02:52:26;;;;;;;0.52;0.40;;;;;;;;;;5022273;28;20046;-60
2022/09/22 02:54:53;;;;;;;0.32;0.32;;;;;;;;;;5023473;28;20041;-60
2022/09/22 02:57:19;;;;;;;0.50;0.40;;;;;;;;;;5022115;28;20049;-60
2022/09/22 02:59:45;;;;;;;0.40;0.40;;;;;;;;;;5023234;28;20052;-60
2022/09/22 03:02:11;;;;;;;0.50;0.50;;;;;;;;;;5020828;28;20045;-61
2022/09/22 03:04:37;;;;;;;0.30;0.30;;;;;;;;;;5021910;28;20103;-60
2022/09/22 03:07:05;;;;;;;0.95;0.38;;;;;;;;;;5023152;28;20048;-60
2022/09/22 03:09:31;;;;;;;0.88;0.50;;;;;;;;;;5021989;28;20075;-60
2022/09/22 03:11:57;;;;;;;0.50;0.50;;;;;;;;;;5021179;28;20053;-60
2022/09/22 03:14:23;;;;;;;0.80;0.75;;;;;;;;;;5022840;28;20128;-60
2022/09/22 03:16:49;;;;;;;0.55;0.55;;;;;;;;;;5023313;28;20045;-61
2022/09/22 03:19:15;;;;;;;0.45;0.45;;;;;;;;;;5020575;28;20041;-61
2022/09/22 03:21:41;;;;;;;0.75;0.75;;;;;;;;;;5023734;28;20125;-61
2022/09/22 03:24:07;;;;;;;0.50;0.50;;;;;;;;;;5021166;28;20384;-61
2022/09/22 03:26:33;;;;;;;0.68;0.50;;;;;;;;;;5020302;28;22259;-61
2022/09/22 03:28:59;;;;;;;0.90;0.63;;;;;;;;;;5021762;28;20133;-61
2022/09/22 03:31:25;;;;;;;0.65;0.55;;;;;;;;;;5022596;28;20095;-61
2022/09/22 03:33:51;;;;;;;0.60;0.60;;;;;;;;;;5019949;28;20057;-61
2022/09/22 03:36:18;;;;;;;0.40;0.40;;;;;;;;;;5022147;28;20499;-61
2022/09/22 03:38:44;;;;;;;0.70;0.70;;;;;;;;;;5022926;28;20044;-61
2022/09/22 03:41:10;;;;;;;1.63;0.68;;;;;;;;;;5020852;28;20047;-61
2022/09/22 03:43:36;;;;;;;0.45;0.45;;;;;;;;;;5021709;28;20037;-61
2022/09/22 03:46:02;;;;;;;0.70;0.50;;;;;;;;;;5022480;28;20699;-61
2022/09/22 03:48:29;;;;;;;0.45;0.45;;;;;;;;;;5021918;28;20052;-61
2022/09/22 03:50:56;;;;;;;0.93;0.60;;;;;;;;;;5020847;28;20077;-61
2022/09/22 03:53:22;;;;;;;1.10;1.00;;;;;;;;;;5019456;28;20048;-61
2022/09/22 03:55:49;;;;;;;0.70;0.70;;;;;;;;;;5023024;28;20043;-61
2022/09/22 03:58:15;;;;;;;0.85;0.60;;;;;;;;;;5023752;28;20041;-61
2022/09/22 04:00:41;;;;;;;0.50;0.50;;;;;;;;;;5023457;28;20041;-61
2022/09/22 04:03:07;;;;;;;0.77;0.73;;;;;;;;;;5022321;28;20125;-61
2022/09/22 04:05:34;;;;;;;0.77;0.63;;;;;;;;;;5021691;28;20049;-61
2022/09/22 04:08:00;;;;;;;0.70;0.70;;;;;;;;;;5023369;28;20504;-61
2022/09/22 04:10:26;;;;;;;0.60;0.60;;;;;;;;;;5023011;28;20050;-60
2022/09/22 04:12:52;;;;;;;0.47;0.40;;;;;;;;;;5027878;28;20048;-60
2022/09/22 04:15:18;;;;;;;0.47;0.47;;;;;;;;;;5028023;28;20049;-60
2022/09/22 04:17:45;;;;;;;1.23;0.68;;;;;;;;;;5028163;28;20049;-60
2022/09/22 04:20:11;;;;;;;0.88;0.45;;;;;;;;;;5028776;28;20041;-60
2022/09/22 04:22:37;;;;;;;0.82;0.50;;;;;;;;;;5026441;28;20049;-60
2022/09/22 04:25:04;;;;;;;1.42;0.70;;;;;;;;;;5027245;28;20041;-60
2022/09/22 04:27:30;;;;;;;0.63;0.50;;;;;;;;;;5025139;28;20488;-60
2022/09/22 04:29:56;;;;;;;0.60;0.60;;;;;;;;;;5027371;28;20048;-60
2022/09/22 04:32:22;;;;;;;0.45;0.45;;;;;;;;;;5026197;28;20037;-60
2022/09/22 04:34:48;;;;;;;0.50;0.50;;;;;;;;;;5027888;28;20583;-60
2022/09/22 04:37:14;;;;;;;0.90;0.60;;;;;;;;;;5025938;28;20069;-60
2022/09/22 04:39:41;;;;;;;1.10;0.90;;;;;;;;;;5027188;28;20080;-61
2022/09/22 04:42:10;;;;;;;0.40;0.32;;;;;;;;;;5025862;28;20049;-60
2022/09/22 04:44:36;;;;;;;0.60;0.50;;;;;;;;;;5024756;28;20049;-60
2022/09/22 04:47:02;;;;;;;0.93;0.52;;;;;;;;;;5025108;28;20053;-60
2022/09/22 04:49:28;;;;;;;0.45;0.40;;;;;;;;;;5022722;28;20041;-60
2022/09/22 04:51:54;;;;;;;0.63;0.63;;;;;;;;;;5027038;28;20474;-60
2022/09/22 04:54:20;;;;;;;0.50;0.47;;;;;;;;;;5025344;28;20091;-60
2022/09/22 04:56:46;;;;;;;0.63;0.60;;;;;;;;;;5024882;28;20045;-60
2022/09/22 04:59:12;;;;;;;0.95;0.70;;;;;;;;;;5026093;28;20463;-60
2022/09/22 05:01:38;;;;;;;0.77;0.77;;;;;;;;;;5024995;28;20133;-60
2022/09/22 05:04:04;;;;;;;0.57;0.57;;;;;;;;;;5026092;28;20136;-60
2022/09/22 05:06:30;;;;;;;0.80;0.57;;;;;;;;;;5024303;28;20136;-60
2022/09/22 05:08:57;;;;;;;0.40;0.40;;;;;;;;;;5022955;28;20506;-60
2022/09/22 05:11:23;;;;;;;1.38;0.73;;;;;;;;;;5021663;28;20126;-60
2022/09/22 05:13:49;;;;;;;2.65;0.47;;;;;;;;;;5027532;28;20554;-60
2022/09/22 05:16:16;;;;;;;0.45;0.40;;;;;;;;;;5025428;28;20049;-60
2022/09/22 05:18:42;;;;;;;0.60;0.60;;;;;;;;;;5025097;28;20103;-60
2022/09/22 05:21:08;;;;;;;0.50;0.38;;;;;;;;;;5027830;28;20045;-60
2022/09/22 05:23:35;;;;;;;0.28;0.28;;;;;;;;;;5026642;28;20080;-61
2022/09/22 05:26:01;;;;;;;0.95;0.68;;;;;;;;;;5027528;28;20046;-60
2022/09/22 05:28:28;;;;;;;1.13;0.52;;;;;;;;;;5027679;28;20076;-61
2022/09/22 05:30:54;;;;;;;0.40;0.40;;;;;;;;;;5026374;28;20045;-60
2022/09/22 05:33:20;;;;;;;0.85;0.40;;;;;;;;;;5024028;28;20045;-61
2022/09/22 05:35:46;;;;;;;0.38;0.38;;;;;;;;;;5023303;28;20705;-61
2022/09/22 05:38:12;;;;;;;0.73;0.63;;;;;;;;;;5019828;28;20045;-66
2022/09/22 05:40:38;;;;;;;1.65;0.80;;;;;;;;;;5026633;28;20617;-62
2022/09/22 05:43:04;;;;;;;0.50;0.40;;;;;;;;;;5024760;28;20049;-61
2022/09/22 05:45:30;;;;;;;0.47;0.40;;;;;;;;;;5025887;28;20637;-65
2022/09/22 05:47:56;;;;;;;0.65;0.47;;;;;;;;;;5024141;28;20044;-61
2022/09/22 05:50:22;;;;;;;0.40;0.40;;;;;;;;;;5021988;28;20050;-60
2022/09/22 05:52:49;;;;;;;1.38;0.50;;;;;;;;;;5024437;28;20037;-60
2022/09/22 05:55:15;;;;;;;0.57;0.40;;;;;;;;;;5022512;28;20843;-60
2022/09/22 05:57:42;;;;;;;0.60;0.50;;;;;;;;;;5025011;28;20485;-61
2022/09/22 06:00:09;;;;;;;2.80;1.00;;;;;;;;;;5023090;28;20559;-60
2022/09/22 06:02:35;;;;;;;0.98;0.68;;;;;;;;;;5023582;28;20056;-62
2022/09/22 06:05:01;;;;;;;0.98;0.85;;;;;;;;;;5026664;28;20821;-61
2022/09/22 06:07:27;;;;;;;0.95;0.88;;;;;;;;;;5009758;28;20140;-61
2022/09/22 06:09:53;;;;;;;0.85;0.73;;;;;;;;;;5005919;28;20145;-61
2022/09/22 06:12:19;;;;;;;0.95;0.90;;;;;;;;;;5022932;28;20132;-61
2022/09/22 06:14:45;;;;;;;2.55;1.10;;;;;;;;;;5026277;28;20049;-61
2022/09/22 06:17:12;;;;;;;1.77;1.00;;;;;;;;;;5025965;28;20053;-61
2022/09/22 06:19:38;;;;;;;1.02;0.93;;;;;;;;;;5027222;28;20136;-61
2022/09/22 06:22:04;;;;;;;1.67;1.05;;;;;;;;;;5026549;28;20120;-61
2022/09/22 06:24:30;;;;;;;0.80;0.80;;;;;;;;;;5025208;28;20045;-62
2022/09/22 06:26:56;;;;;;;1.05;0.98;;;;;;;;;;5025806;28;20269;-62
2022/09/22 06:29:22;;;;;;;1.20;1.10;;;;;;;;;;5025353;28;20687;-61
2022/09/22 06:31:48;;;;;;;1.00;0.95;;;;;;;;;;5027477;28;20049;-61
2022/09/22 06:34:14;;;;;;;0.90;0.90;;;;;;;;;;5025858;28;20037;-61
2022/09/22 06:36:42;;;;;;;2.67;1.88;;;;;;;;;;5021264;28;20057;-61
2022/09/22 06:39:09;;;;;;;1.23;1.13;;;;;;;;;;5020218;28;20133;-62
2022/09/22 06:41:35;;;;;;;1.60;1.45;;;;;;;;;;5009957;28;20058;-62
2022/09/22 06:44:01;;;;;;;1.70;1.23;;;;;;;;;;5017482;28;20037;-62
2022/09/22 06:46:28;;;;;;;2.03;1.48;;;;;;;;;;5020579;28;20388;-62
2022/09/22 06:48:58;;;;;;;1.45;1.35;;;;;;;;;;5015936;28;20225;-62
2022/09/22 06:51:28;;;;;;;1.25;1.10;;;;;;;;;;5024787;28;20060;-62
2022/09/22 06:53:55;;;;;;;1.98;1.10;;;;;;;;;;5024515;28;20049;-62
2022/09/22 06:56:22;;;;;;;1.27;1.10;;;;;;;;;;5017946;28;20495;-62
2022/09/22 06:58:48;;;;;;;;;;;;;;;;;;5016331;28;20046;-62
2022/09/22 07:01:14;;;;;;;;;;;;;;;;;;5013910;28;20420;-62
2022/09/22 07:03:40;;;;;;;1.85;1.38;;;;;;;;;;5010136;28;19925;-62
2022/09/22 07:06:07;;;;;;;2.28;0.90;;;;;;;;;;5019033;28;20038;-63
2022/09/22 07:08:34;;;;;;;2.05;1.35;;;;;;;;;;5019217;28;20057;-62
2022/09/22 07:11:06;;;;;;;1.30;1.20;;;;;;;;;;5024599;28;20125;-63
2022/09/22 07:13:35;;;;;;;1.20;1.10;;;;;;;;;;5007164;28;20049;-63
2022/09/22 07:16:03;;;;;;;1.20;0.93;;;;;;;;;;5024128;28;20538;-63
2022/09/22 07:18:29;;;;;;;1.30;1.20;;;;;;;;;;5010897;28;20452;-62
2022/09/22 07:21:03;;;;;;;1.05;0.95;;;;;;;;;;5011140;28;20092;-63
2022/09/22 07:23:29;;;;;;;1.05;0.88;;;;;;;;;;5015122;28;20077;-63
2022/09/22 07:25:59;;;;;;;1.38;1.08;;;;;;;;;;5022974;28;20080;-63
2022/09/22 07:28:27;;;;;;;1.85;0.88;;;;;;;;;;5006023;28;20757;-63
2022/09/22 07:30:56;;;;;;;1.90;0.90;;;;;;;;;;5017043;28;20048;-64
2022/09/22 07:33:22;;;;;;;0.90;0.90;;;;;;;;;;5024771;28;20123;-64
2022/09/22 07:35:48;;;;;;;0.70;0.70;;;;;;;;;;5024749;28;20120;-64
2022/09/22 07:38:15;;;;;;;1.00;0.80;;;;;;;;;;5015929;28;20049;-64
2022/09/22 07:40:50;;;;;;;1.10;1.00;;;;;;;;;;5006104;28;20045;-63
2022/09/22 07:43:16;;;;;;;1.23;1.13;;;;;;;;;;5023775;28;20041;-64
2022/09/22 07:45:42;;;;;;;1.15;1.05;;;;;;;;;;5023308;28;20053;-64
2022/09/22 07:50:53;;;;;;;;;;;;;;;;;;5017568;28;20475;-64
2022/09/22 07:53:19;;;;;;;;;;;;;;;;;;5022619;28;20020;-64
2022/09/22 07:55:46;;;;;;;;;;;;;;;;;;5018458;28;19939;-64
2022/09/22 07:58:12;;;;;;;;;;;;;;;;;;5023903;28;19932;-64
2022/09/22 08:00:38;;;;;;;;;;;;;;;;;;5012429;28;20060;-61
2022/09/22 08:03:05;;;;;;;;;;;;;;;;;;5021954;28;19978;-62
2022/09/22 08:05:31;;;;;;;;;;;;;;;;;;5010693;28;19929;-62
2022/09/22 08:07:57;;;;;;;;;;;;;;;;;;5014430;28;19927;-63
2022/09/22 08:10:23;;;;;;;;;;;;;;;;;;5015352;28;19932;-63
2022/09/22 08:12:49;;;;;;;;;;;;;;;;;;5018716;28;20551;-62
2022/09/22 08:15:15;;;;;;;;;;;;;;;;;;5019302;28;19972;-62
2022/09/22 08:17:42;;;;;;;;;;;;;;;;;;5023982;28;19979;-63
2022/09/22 08:20:08;;;;;;;;;;;;;;;;;;5024419;28;19921;-62
2022/09/22 08:22:34;;;;;;;;;;;;;;;;;;5020151;28;19921;-62
2022/09/22 08:25:00;;;;;;;;;;;;;;;;;;5019069;28;19925;-62
2022/09/22 08:27:26;;;;;;;;;;;;;;;;;;5022913;28;19925;-62
2022/09/22 08:29:52;;;;;;;;;;;;;;;;;;5023109;28;19928;-62
2022/09/22 08:32:18;;;;;;;;;;;;;;;;;;5023091;28;19930;-63
2022/09/22 08:34:44;;;;;;;1.20;0.93;;;;;;;;;;5019203;28;19975;-63
2022/09/22 08:37:12;;;;;;;1.20;1.10;;;;;;;;;;5017762;28;20602;-63
2022/09/22 08:39:38;;;;;;;2.85;1.45;;;;;;;;;;5020540;28;20643;-64
2022/09/22 08:42:19;;;;;;;1.85;1.48;;;;;;;;;;5016750;28;20484;-63
2022/09/22 08:44:58;;;;;;;1.15;0.98;;;;;;;;;;5020272;28;20081;-63
2022/09/22 08:53:12;;;;;;;1.92;1.30;;;;;;;;;;5018775;28;20503;-64
2022/09/22 08:55:41;;;;;;;2.00;1.50;;;;;;;;;;5020342;28;20045;-63
2022/09/22 08:58:13;;;;;;;3.50;1.38;;;;;;;;;;5026727;28;20041;-64
2022/09/22 09:00:42;;;;;;;0.70;0.70;;;;;;;;;;5023563;28;20052;-63
2022/09/22 09:03:26;;;;;;;0.93;0.88;;;;;;;;;;5022815;28;20033;-63
2022/09/22 09:06:11;;;;;;;3.05;1.08;;;;;;;;;;5024921;28;20052;-61
2022/09/22 09:08:38;;;;;;;2.65;0.95;;;;;;;;;;5021906;28;20409;-61
2022/09/22 09:11:10;;;;;;;1.05;0.77;;;;;;;;;;5012313;28;20092;-62
2022/09/22 09:13:40;;;;;;;0.68;0.60;;;;;;;;;;5025612;28;20571;-62
2022/09/22 09:16:25;;;;;;;0.52;0.50;;;;;;;;;;5021542;28;20404;-63
2022/09/22 09:18:51;;;;;;;;;;;;;;;;;;5016996;28;20045;-62
2022/09/22 09:21:17;;;;;;;;;;;;;;;;;;5015986;28;19935;-60
2022/09/22 09:23:45;;;;;;;1.63;0.80;;;;;;;;;;5018841;28;19928;-60
2022/09/22 09:26:12;;;;;;;1.05;0.88;;;;;;;;;;5021069;28;20053;-61
2022/09/22 09:28:44;;;;;;;0.90;0.68;;;;;;;;;;5020032;28;20072;-61
2022/09/22 09:31:32;;;;;;;1.47;0.77;;;;;;;;;;5017224;28;20984;-61
2022/09/22 09:34:16;;;;;;;2.53;1.10;;;;;;;;;;5019283;28;20315;-61
2022/09/22 09:36:44;;;;;;;0.80;0.80;;;;;;;;;;5018748;28;21635;-61
2022/09/22 09:39:10;;;;;;;2.20;0.80;;;;;;;;;;5014393;28;20033;-61
2022/09/22 09:41:37;;;;;;;1.08;0.70;;;;;;;;;;5019544;28;20118;-61
2022/09/22 09:44:03;;;;;;;1.42;0.60;;;;;;;;;;5016498;28;20056;-61
2022/09/22 09:46:35;;;;;;;1.05;0.60;;;;;;;;;;5019381;28;20040;-61
2022/09/22 09:49:06;;;;;;;1.05;0.50;;;;;;;;;;5027564;28;20510;-61
2022/09/22 09:51:37;;;;;;;1.05;0.60;;;;;;;;;;5025015;28;20052;-61
2022/09/22 09:54:06;;;;;;;0.40;0.40;;;;;;;;;;5026320;28;20073;-61
2022/09/22 09:56:35;;;;;;;1.25;0.60;;;;;;;;;;5019994;28;20426;-61
2022/09/22 10:01:53;;;;;;;0.88;0.47;;;;;;;;;;5027982;28;20136;-60
2022/09/22 10:04:19;;;;;;;3.13;0.60;;;;;;;;;;5026172;28;20045;-61
2022/09/22 10:06:45;;;;;;;0.63;0.60;;;;;;;;;;5025944;28;20082;-60
2022/09/22 10:09:22;;;;;;;1.50;0.80;;;;;;;;;;5011483;28;20057;-61
2022/09/22 10:11:57;;;;;;;1.40;0.70;;;;;;;;;;5036427;28;20057;-61
2022/09/22 10:14:26;;;;;;;0.40;0.30;;;;;;;;;;5024288;28;20054;-61
2022/09/22 10:16:52;;;;;;;1.95;0.70;;;;;;;;;;5024818;28;20053;-61
2022/09/22 10:19:27;;;;;;;0.63;0.52;;;;;;;;;;5026883;28;20046;-61
2022/09/22 10:22:13;;;;;;;1.13;0.80;;;;;;;;;;5005006;28;20072;-61
2022/09/22 10:24:39;;;;;;;1.88;0.77;;;;;;;;;;5012049;28;20068;-61
2022/09/22 10:27:05;;;;;;;1.40;1.00;;;;;;;;;;5015437;28;20423;-61
2022/09/22 10:29:31;;;;;;;1.77;1.00;;;;;;;;;;5022281;28;20092;-61
2022/09/22 10:32:01;;;;;;;1.08;0.70;;;;;;;;;;5017016;28;20384;-61
2022/09/22 10:34:32;;;;;;;1.15;0.68;;;;;;;;;;5017378;28;20041;-61
2022/09/22 10:37:00;;;;;;;1.60;0.80;;;;;;;;;;5010332;28;20156;-61
2022/09/22 10:39:31;;;;;;;0.50;0.50;;;;;;;;;;5021267;28;20045;-61
2022/09/22 10:42:01;;;;;;;1.02;0.60;;;;;;;;;;5019944;28;20041;-61
2022/09/22 10:44:28;;;;;;;1.40;0.90;;;;;;;;;;5011982;28;20058;-61
2022/09/22 10:46:57;;;;;;;1.63;1.08;;;;;;;;;;5009949;28;20185;-61
2022/09/22 10:49:49;;;;;;;1.70;1.00;;;;;;;;;;5012794;28;20370;-61
2022/09/22 10:52:18;;;;;;;1.20;1.05;;;;;;;;;;5016421;28;20082;-61
2022/09/22 10:54:47;;;;;;;3.30;1.15;;;;;;;;;;5018297;28;20050;-61
2022/09/22 10:57:40;;;;;;;2.22;1.08;;;;;;;;;;5012977;28;20052;-62
2022/09/22 11:00:10;;;;;;;2.40;1.00;;;;;;;;;;5009594;28;20119;-61
2022/09/22 11:02:46;;;;;;;1.08;1.00;;;;;;;;;;5006272;28;20493;-62
2022/09/22 11:12:15;;;;;;;1.45;1.05;;;;;;;;;;5020407;28;20041;-61
2022/09/22 11:13:59;;;;;;;2.35;1.02;;;;;;;;;;5017384;28;20049;-61
2022/09/22 11:16:26;;;;;;;2.60;0.90;;;;;;;;;;5012467;28;20830;-61
2022/09/22 11:18:56;;;;;;;1.52;1.02;;;;;;;;;;5020706;28;20042;-62
2022/09/22 11:21:31;;;;;;;1.65;0.95;;;;;;;;;;5013531;28;20099;-61
2022/09/22 11:24:14;;;;;;;1.40;0.80;;;;;;;;;;5012168;28;20052;-62
2022/09/22 11:26:40;;;;;;;1.52;1.10;;;;;;;;;;5009333;28;20037;-61
2022/09/22 11:29:06;;;;;;;3.03;1.30;;;;;;;;;;5019729;28;20496;-61
2022/09/22 11:31:55;;;;;;;1.95;1.17;;;;;;;;;;5016045;28;20049;-61
2022/09/22 11:34:24;;;;;;;2.08;1.40;;;;;;;;;;5012738;28;20057;-61
2022/09/22 11:36:53;;;;;;;2.17;1.20;;;;;;;;;;5014613;28;20048;-62
2022/09/22 11:39:43;;;;;;;1.63;1.08;;;;;;;;;;5021424;28;20037;-62
2022/09/22 11:42:34;;;;;;;3.47;1.30;;;;;;;;;;5017636;28;20421;-61
2022/09/22 11:45:03;;;;;;;2.28;1.15;;;;;;;;;;5012271;28;20048;-61
2022/09/22 11:47:29;;;;;;;1.30;1.08;;;;;;;;;;5017653;28;20095;-61
2022/09/22 11:49:58;;;;;;;2.17;1.10;;;;;;;;;;5019245;28;20451;-61
2022/09/22 11:52:43;;;;;;;2.35;1.35;;;;;;;;;;5022307;28;20063;-61
2022/09/22 11:55:15;;;;;;;1.48;1.10;;;;;;;;;;5021746;28;20042;-61
2022/09/22 11:57:44;;;;;;;1.40;1.30;;;;;;;;;;5024436;28;20157;-66
2022/09/22 12:00:17;;;;;;;1.52;1.10;;;;;;;;;;5018257;28;20040;-63
2022/09/22 12:02:49;;;;;;;0.98;0.90;;;;;;;;;;5020593;28;20112;-61
2022/09/22 12:05:27;;;;;;;1.00;0.90;;;;;;;;;;5014848;28;20060;-61
2022/09/22 12:08:00;;;;;;;3.20;1.00;;;;;;;;;;5017585;28;20056;-61
2022/09/22 12:10:34;;;;;;;1.27;0.95;;;;;;;;;;5021788;28;20061;-61
2022/09/22 12:13:02;;;;;;;1.58;1.30;;;;;;;;;;5019149;28;20172;-61
2022/09/22 12:15:37;;;;;;;3.50;2.47;;;;;;;;;;5013603;28;20068;-60
2022/09/22 12:18:09;;;;;;;2.30;2.13;;;;;;;;;;5016715;28;20087;-61
2022/09/22 12:20:38;;;;;;;2.95;2.17;;;;;;;;;;5013336;28;20060;-61
2022/09/22 12:23:24;;;;;;;2.88;1.88;;;;;;;;;;5012850;28;20630;-60
2022/09/22 12:25:55;;;;;;;2.08;1.75;;;;;;;;;;5010147;28;20069;-61
2022/09/22 12:28:25;;;;;;;2.10;1.90;;;;;;;;;;5014994;28;20396;-60
2022/09/22 12:31:11;;;;;;;2.00;1.70;;;;;;;;;;5003408;28;20061;-61
2022/09/22 12:33:39;;;;;;;1.60;1.48;;;;;;;;;;5014840;28;20085;-61
2022/09/22 12:36:05;;;;;;;2.67;2.03;;;;;;;;;;5022102;28;20056;-61
2022/09/22 12:38:31;;;;;;;1.48;1.38;;;;;;;;;;5019625;28;20515;-61
2022/09/22 12:41:01;;;;;;;1.83;1.73;;;;;;;;;;5016178;28;20085;-61
2022/09/22 12:43:27;;;;;;;1.40;1.30;;;;;;;;;;5020843;28;20064;-61
2022/09/22 12:45:54;;;;;;;2.25;1.50;;;;;;;;;;5028097;28;20551;-61
2022/09/22 12:48:25;;;;;;;2.40;1.30;;;;;;;;;;5027266;28;20045;-61
2022/09/22 12:50:52;;;;;;;1.60;1.50;;;;;;;;;;5027659;28;20818;-61
2022/09/22 12:53:21;;;;;;;1.65;1.48;;;;;;;;;;5028517;28;20492;-61
2022/09/22 12:55:47;;;;;;;1.60;1.08;;;;;;;;;;5028116;28;20547;-61
2022/09/22 12:58:20;;;;;;;1.10;0.90;;;;;;;;;;5026777;28;20132;-61
2022/09/22 13:00:46;;;;;;;4.75;1.50;;;;;;;;;;5026184;28;20057;-61
2022/09/22 13:03:24;;;;;;;1.58;1.20;;;;;;;;;;5026920;28;20121;-61
2022/09/22 13:05:51;;;;;;;2.17;1.52;;;;;;;;;;5028243;28;20045;-60
2022/09/22 13:08:38;;;;;;;1.73;1.30;;;;;;;;;;5026951;28;20058;-61
2022/09/22 13:11:05;;;;;;;1.63;1.23;;;;;;;;;;4997263;28;20052;-61
2022/09/22 13:13:31;;;;;;;1.10;1.00;;;;;;;;;;5026868;28;20131;-62
2022/09/22 13:15:58;;;;;;;0.95;0.95;;;;;;;;;;5026049;28;20492;-62
2022/09/22 13:18:32;;;;;;;3.97;1.75;;;;;;;;;;5026698;28;20041;-62
2022/09/22 13:20:59;;;;;;;2.33;1.95;;;;;;;;;;5028112;28;20081;-62
2022/09/22 13:23:25;;;;;;;2.35;1.80;;;;;;;;;;5027141;28;20077;-62
2022/09/22 13:25:52;;;;;;;1.80;1.67;;;;;;;;;;5028388;28;20083;-62
2022/09/22 13:28:19;;;;;;;3.42;1.40;;;;;;;;;;5026831;28;20049;-61
2022/09/22 13:30:47;;;;;;;2.97;1.90;;;;;;;;;;5027494;28;20049;-60
2022/09/22 13:33:19;;;;;;;1.67;1.50;;;;;;;;;;5027803;28;20106;-61
2022/09/22 13:35:45;;;;;;;1.85;1.50;;;;;;;;;;5026680;28;20057;-61
2022/09/22 13:38:13;;;;;;;1.30;1.17;;;;;;;;;;5027646;28;20065;-61
2022/09/22 13:40:44;;;;;;;1.08;0.93;;;;;;;;;;5026566;28;20084;-61
2022/09/22 13:43:11;;;;;;;0.98;0.90;;;;;;;;;;5025809;28;20454;-61
2022/09/22 13:45:38;;;;;;;2.92;1.38;;;;;;;;;;5026996;28;20570;-61
2022/09/22 13:48:07;;;;;;;1.73;1.20;;;;;;;;;;5027800;28;19964;-61
2022/09/22 13:50:38;;;;;;;1.20;1.00;;;;;;;;;;5027305;28;20377;-61
2022/09/22 13:53:06;;;;;;;1.90;1.70;;;;;;;;;;5027245;28;20110;-60
2022/09/22 13:55:36;;;;;;;2.42;1.40;;;;;;;;;;5025834;28;20053;-61
2022/09/22 13:58:02;;;;;;;2.45;1.48;;;;;;;;;;5027016;28;20057;-60
2022/09/22 14:00:32;;;;;;;3.25;1.50;;;;;;;;;;5027231;28;20488;-61
2022/09/22 14:03:01;;;;;;;2.58;1.40;;;;;;;;;;5026260;28;20053;-61
2022/09/22 14:05:29;;;;;;;1.27;1.08;;;;;;;;;;5026274;28;20084;-61
2022/09/22 14:07:56;;;;;;;0.80;0.80;;;;;;;;;;5027515;28;20168;-61
2022/09/22 14:10:24;;;;;;;1.83;1.25;;;;;;;;;;5027162;28;20450;-61
2022/09/22 14:12:50;;;;;;;1.45;1.30;;;;;;;;;;5026882;28;20049;-61
2022/09/22 14:15:35;;;;;;;1.27;1.13;;;;;;;;;;5025989;28;20446;-61
2022/09/22 14:18:01;;;;;;;1.13;1.05;;;;;;;;;;5027174;28;20134;-61
2022/09/22 14:20:28;;;;;;;1.50;1.10;;;;;;;;;;5026318;28;20054;-61
2022/09/22 14:22:54;;;;;;;1.40;0.95;;;;;;;;;;5027307;28;20081;-61
2022/09/22 14:25:21;;;;;;;2.47;1.40;;;;;;;;;;5026825;28;20076;-61
2022/09/22 14:27:58;;;;;;;1.25;1.13;;;;;;;;;;5026750;28;20049;-61
2022/09/22 14:30:29;;;;;;;4.55;2.00;;;;;;;;;;5026427;28;20415;-61
2022/09/22 14:33:02;;;;;;;2.23;1.53;;;;;;;;;;5027073;28;20052;-61
2022/09/22 14:35:35;;;;;;;3.00;1.35;;;;;;;;;;5026427;28;20091;-61
2022/09/22 14:38:02;;;;;;;2.33;1.20;;;;;;;;;;5026860;28;20061;-60
2022/09/22 14:40:29;;;;;;;1.40;1.20;;;;;;;;;;5026046;28;20040;-61
2022/09/22 14:43:02;;;;;;;2.70;1.80;;;;;;;;;;5026562;28;20099;-61
2022/09/22 14:45:30;;;;;;;2.78;1.52;;;;;;;;;;5026421;28;20046;-61
2022/09/22 14:48:09;;;;;;;1.55;1.40;;;;;;;;;;5026033;28;20651;-60
2022/09/22 14:50:36;;;;;;;1.00;1.00;;;;;;;;;;5026196;28;20338;-61
2022/09/22 14:53:10;;;;;;;1.63;1.20;;;;;;;;;;5026420;28;20042;-61
2022/09/22 14:55:38;;;;;;;1.00;0.90;;;;;;;;;;5025556;28;20219;-61
2022/09/22 14:58:06;;;;;;;2.03;1.05;;;;;;;;;;5025059;28;20099;-61
2022/09/22 15:03:20;;;;;;;0.95;0.88;;;;;;;;;;5025865;28;20045;-60
2022/09/22 15:05:46;;;;;;;1.33;1.00;;;;;;;;;;5024853;28;20057;-61
2022/09/22 15:08:17;;;;;;;1.17;0.75;;;;;;;;;;5025492;28;20045;-61
2022/09/22 15:10:51;;;;;;;1.10;1.00;;;;;;;;;;5026704;28;20049;-60
2022/09/22 15:13:28;;;;;;;0.98;0.65;;;;;;;;;;5026172;28;20056;-61
2022/09/22 15:15:55;;;;;;;0.95;0.65;;;;;;;;;;5025594;28;20058;-61
2022/09/22 15:18:21;;;;;;;1.30;0.88;;;;;;;;;;5025679;28;20050;-61
2022/09/22 15:21:13;;;;;;;0.50;0.50;;;;;;;;;;5024575;28;20427;-61
2022/09/22 15:23:40;;;;;;;0.77;0.77;;;;;;;;;;5021413;28;20054;-61